createdAt,value
2024-02-09T00:01:14.286Z,79.30
2024-02-09T00:03:16.337Z,79.10
2024-02-09T00:05:18.899Z,79.20
2024-02-09T00:07:20.752Z,79.30
2024-02-09T00:09:22.656Z,79.40
2024-02-09T00:11:24.393Z,79.60
2024-02-09T00:13:26.218Z,79.40
2024-02-09T00:15:28.996Z,79.50
2024-02-09T00:17:33.945Z,79.30
2024-02-09T00:19:35.901Z,79.00
2024-02-09T00:21:37.724Z,79.00
2024-02-09T00:23:39.555Z,78.80
2024-02-09T00:25:41.881Z,78.80
2024-02-09T00:27:44.487Z,78.80
2024-02-09T00:29:46.201Z,78.70
2024-02-09T00:31:47.916Z,78.80
2024-02-09T00:33:49.737Z,79.10
2024-02-09T00:35:51.514Z,79.30
2024-02-09T00:37:56.886Z,79.00
2024-02-09T00:39:58.829Z,79.00
2024-02-09T00:42:02.823Z,78.90
2024-02-09T00:44:04.730Z,78.90
2024-02-09T00:46:06.565Z,79.20
2024-02-09T00:48:08.621Z,79.30
2024-02-09T00:50:11.403Z,79.10
2024-02-09T00:52:13.478Z,79.20
2024-02-09T00:54:15.512Z,79.50
2024-02-09T00:56:17.640Z,79.50
2024-02-09T00:58:19.545Z,79.50
2024-02-09T01:00:21.559Z,79.70
2024-02-09T01:02:25.680Z,79.90
2024-02-09T01:04:28.931Z,80.00
2024-02-09T01:06:31.159Z,80.00
2024-02-09T01:08:33.123Z,80.00
2024-02-09T01:10:34.959Z,80.10
2024-02-09T01:12:56.158Z,80.30
2024-02-09T01:15:16.755Z,80.30
2024-02-09T01:17:37.474Z,80.60
2024-02-09T01:19:58.045Z,80.60
2024-02-09T01:22:18.312Z,80.60
2024-02-09T01:24:38.827Z,80.70
2024-02-09T01:26:59.325Z,80.70
2024-02-09T01:29:19.809Z,80.80
2024-02-09T01:31:40.359Z,80.80
2024-02-09T01:34:01.082Z,80.90
2024-02-09T01:36:21.509Z,80.90
2024-02-09T01:38:41.938Z,81.00
2024-02-09T01:41:02.472Z,81.10
2024-02-09T01:43:24.003Z,80.90
2024-02-09T01:45:44.303Z,80.90
2024-02-09T01:48:04.897Z,80.90
2024-02-09T01:50:26.190Z,80.80
2024-02-09T01:52:48.858Z,80.70
2024-02-09T01:55:09.343Z,80.70
2024-02-09T01:57:30.409Z,80.70
2024-02-09T01:59:52.474Z,80.90
2024-02-09T02:02:13.257Z,81.10
2024-02-09T02:04:33.765Z,81.20
2024-02-09T02:06:54.994Z,81.20
2024-02-09T02:09:15.417Z,81.20
2024-02-09T02:11:36.053Z,81.20
2024-02-09T02:13:56.700Z,81.10
2024-02-09T02:16:17.810Z,81.30
2024-02-09T02:18:38.487Z,81.50
2024-02-09T02:20:59.091Z,81.40
2024-02-09T02:23:30.803Z,81.20
2024-02-09T02:25:51.251Z,81.20
2024-02-09T02:28:12.885Z,81.30
2024-02-09T02:30:33.529Z,81.40
2024-02-09T02:32:54.492Z,81.50
2024-02-09T02:35:15.179Z,81.40
2024-02-09T02:37:35.811Z,81.50
2024-02-09T02:39:56.361Z,81.50
2024-02-09T02:41:58.144Z,81.50
2024-02-09T02:44:00.153Z,81.60
2024-02-09T02:46:01.908Z,81.40
2024-02-09T02:48:25.085Z,81.40
2024-02-09T02:50:45.636Z,81.30
2024-02-09T02:53:05.985Z,81.20
2024-02-09T02:55:46.307Z,81.30
2024-02-09T02:58:06.598Z,81.40
2024-02-09T03:00:27.314Z,81.40
2024-02-09T03:02:47.634Z,81.50
2024-02-09T03:04:49.519Z,81.20
2024-02-09T03:07:13.378Z,81.40
2024-02-09T03:09:13.176Z,81.20
2024-02-09T03:11:15.115Z,81.40
2024-02-09T03:13:16.883Z,81.60
2024-02-09T03:15:21.542Z,81.50
2024-02-09T03:17:23.820Z,81.60
2024-02-09T03:19:25.871Z,81.70
2024-02-09T03:21:28.251Z,81.60
2024-02-09T03:23:30.048Z,81.60
2024-02-09T03:25:31.989Z,81.60
2024-02-09T03:27:37.918Z,81.80
2024-02-09T03:29:41.209Z,81.80
2024-02-09T03:31:44.135Z,81.80
2024-02-09T03:33:46.438Z,81.70
2024-02-09T03:35:48.355Z,81.50
2024-02-09T03:37:50.116Z,81.70
2024-02-09T03:39:52.684Z,81.70
2024-02-09T03:41:54.946Z,81.90
2024-02-09T03:44:05.525Z,81.90
2024-02-09T03:46:07.852Z,81.90
2024-02-09T03:48:09.687Z,82.00
2024-02-09T03:50:12.215Z,82.10
2024-02-09T03:52:14.642Z,81.90
2024-02-09T03:54:16.472Z,82.10
2024-02-09T03:56:18.189Z,82.10
2024-02-09T03:58:21.283Z,82.30
2024-02-09T04:00:23.064Z,82.10
2024-02-09T04:02:24.870Z,82.10
2024-02-09T04:04:27.988Z,82.30
2024-02-09T04:06:30.979Z,82.30
2024-02-09T04:08:33.002Z,82.50
2024-02-09T04:10:43.407Z,82.80
2024-02-09T04:12:46.632Z,82.70
2024-02-09T04:14:48.432Z,82.60
2024-02-09T04:16:50.757Z,82.50
2024-02-09T04:18:52.578Z,82.60
2024-02-09T04:20:54.358Z,82.60
2024-02-09T04:22:56.075Z,82.20
2024-02-09T04:24:58.344Z,82.30
2024-02-09T04:27:00.565Z,82.50
2024-02-09T04:29:02.349Z,82.50
2024-02-09T04:31:04.416Z,82.30
2024-02-09T04:33:08.321Z,82.30
2024-02-09T04:35:10.203Z,82.30
2024-02-09T04:37:15.282Z,82.40
2024-02-09T04:39:17.643Z,82.40
2024-02-09T04:41:20.039Z,82.60
2024-02-09T04:43:21.842Z,82.60
2024-02-09T04:45:23.963Z,82.50
2024-02-09T04:47:25.939Z,82.40
2024-02-09T04:49:27.800Z,82.40
2024-02-09T04:51:30.011Z,82.40
2024-02-09T04:53:31.780Z,82.30
2024-02-09T04:55:36.091Z,82.40
2024-02-09T04:57:37.923Z,82.50
2024-02-09T04:59:39.751Z,82.60
2024-02-09T05:01:43.287Z,82.50
2024-02-09T05:03:46.080Z,82.70
2024-02-09T05:05:48.561Z,83.10
2024-02-09T05:07:50.467Z,84.00
2024-02-09T05:09:52.251Z,84.50
2024-02-09T05:11:53.979Z,84.50
2024-02-09T05:13:56.199Z,84.80
2024-02-09T05:16:01.373Z,85.10
2024-02-09T05:18:03.383Z,85.50
2024-02-09T05:20:05.906Z,85.60
2024-02-09T05:22:07.809Z,86.00
2024-02-09T05:24:09.899Z,85.90
2024-02-09T05:26:12.505Z,86.30
2024-02-09T05:28:14.302Z,86.40
2024-02-09T05:30:17.350Z,86.50
2024-02-09T05:32:22.389Z,86.40
2024-02-09T05:34:24.530Z,86.30
2024-02-09T05:36:27.954Z,86.60
2024-02-09T05:38:31.007Z,86.80
2024-02-09T05:40:33.137Z,87.00
2024-02-09T05:42:34.918Z,87.10
2024-02-09T05:44:36.747Z,86.90
2024-02-09T05:46:38.663Z,86.90
2024-02-09T05:48:40.630Z,87.10
2024-02-09T05:50:43.485Z,87.20
2024-02-09T05:52:46.539Z,87.20
2024-02-09T05:54:48.520Z,87.20
2024-02-09T05:56:50.376Z,87.10
2024-02-09T05:58:58.668Z,87.20
2024-02-09T06:01:00.635Z,87.20
2024-02-09T06:03:03.885Z,87.30
2024-02-09T06:05:06.053Z,87.30
2024-02-09T06:07:07.939Z,87.20
2024-02-09T06:09:09.684Z,87.30
2024-02-09T06:11:11.395Z,87.50
2024-02-09T06:13:13.283Z,87.60
2024-02-09T06:15:15.211Z,87.50
2024-02-09T06:17:18.016Z,87.60
2024-02-09T06:19:21.717Z,87.70
2024-02-09T06:21:23.932Z,87.80
2024-02-09T06:23:26.838Z,87.70
2024-02-09T06:25:29.021Z,87.80
2024-02-09T06:27:30.901Z,87.90
2024-02-09T06:29:33.336Z,87.90
2024-02-09T06:31:43.317Z,87.70
2024-02-09T06:33:51.404Z,87.80
2024-02-09T06:35:53.505Z,87.60
2024-02-09T06:37:57.589Z,87.60
2024-02-09T06:40:00.621Z,87.50
2024-02-09T06:42:02.510Z,87.50
2024-02-09T06:44:04.435Z,87.20
2024-02-09T06:46:06.365Z,87.00
2024-02-09T06:48:08.738Z,86.60
2024-02-09T06:50:13.550Z,86.60
2024-02-09T06:52:15.463Z,86.20
2024-02-09T06:54:17.328Z,86.80
2024-02-09T06:56:19.124Z,87.20
2024-02-09T06:58:21.830Z,87.00
2024-02-09T07:00:26.898Z,87.20
2024-02-09T07:02:28.837Z,87.60
2024-02-09T07:04:31.114Z,87.50
2024-02-09T07:06:33.006Z,87.40
2024-02-09T07:08:40.862Z,87.30
2024-02-09T07:10:42.629Z,87.50
2024-02-09T07:12:45.242Z,87.50
2024-02-09T07:14:47.889Z,87.60
2024-02-09T07:16:51.743Z,87.50
2024-02-09T07:18:56.472Z,87.50
2024-02-09T07:20:58.356Z,87.30
2024-02-09T07:23:00.215Z,87.10
2024-02-09T07:25:03.060Z,87.30
2024-02-09T07:27:05.038Z,87.40
2024-02-09T07:29:06.803Z,87.20
2024-02-09T07:31:10.160Z,87.20
2024-02-09T07:33:12.112Z,87.00
2024-02-09T07:35:14.497Z,86.80
2024-02-09T07:37:16.888Z,86.80
2024-02-09T07:39:18.812Z,86.70
2024-02-09T07:41:21.073Z,86.50
2024-02-09T07:43:22.968Z,86.00
2024-02-09T07:45:24.851Z,86.10
2024-02-09T07:47:28.178Z,86.50
2024-02-09T07:49:32.412Z,86.60
2024-02-09T07:51:34.256Z,87.20
2024-02-09T07:53:37.007Z,87.00
2024-02-09T07:55:38.812Z,87.00
2024-02-09T07:57:40.888Z,86.70
2024-02-09T07:59:43.671Z,87.00
2024-02-09T08:01:45.646Z,86.90
2024-02-09T08:03:47.625Z,85.80
2024-02-09T08:05:49.920Z,85.70
2024-02-09T08:07:53.489Z,85.40
2024-02-09T08:09:57.096Z,85.00
2024-02-09T08:11:58.887Z,84.70
2024-02-09T08:14:02.411Z,84.70
2024-02-09T08:16:05.096Z,84.30
2024-02-09T08:18:07.303Z,84.10
2024-02-09T08:20:10.975Z,84.20
2024-02-09T08:22:12.819Z,83.90
2024-02-09T08:24:15.859Z,83.30
2024-02-09T08:26:18.257Z,83.10
2024-02-09T08:28:20.151Z,83.10
2024-02-09T08:30:21.986Z,82.50
2024-02-09T08:32:28.389Z,82.60
2024-02-09T08:34:30.307Z,82.00
2024-02-09T08:36:32.168Z,82.00
2024-02-09T08:38:34.227Z,82.00
2024-02-09T08:40:36.074Z,82.00
2024-02-09T08:42:37.857Z,81.90
2024-02-09T08:44:40.109Z,81.70
2024-02-09T08:46:41.898Z,81.70
2024-02-09T08:48:43.735Z,81.60
2024-02-09T08:50:46.124Z,81.60
2024-02-09T08:52:48.038Z,81.30
2024-02-09T08:54:49.792Z,81.50
2024-02-09T08:56:54.650Z,80.90
2024-02-09T08:58:56.442Z,80.40
2024-02-09T09:01:04.907Z,80.10
2024-02-09T09:03:07.739Z,80.10
2024-02-09T09:05:10.319Z,79.70
2024-02-09T09:07:13.942Z,79.30
2024-02-09T09:09:16.491Z,79.50
2024-02-09T09:11:19.606Z,79.80
2024-02-09T09:13:21.319Z,79.00
2024-02-09T09:15:25.245Z,78.00
2024-02-09T09:17:28.858Z,77.70
2024-02-09T09:19:31.904Z,77.80
2024-02-09T09:21:34.091Z,77.50
2024-02-09T09:23:35.893Z,77.60
2024-02-09T09:25:37.705Z,78.00
2024-02-09T09:27:39.464Z,78.00
2024-02-09T09:29:41.178Z,77.70
2024-02-09T09:31:43.401Z,77.10
2024-02-09T09:33:45.253Z,77.30
2024-02-09T09:35:49.957Z,76.70
2024-02-09T09:37:53.707Z,76.50
2024-02-09T09:39:55.836Z,76.60
2024-02-09T09:41:58.335Z,76.70
2024-02-09T09:44:00.219Z,77.10
2024-02-09T09:46:02.412Z,76.80
2024-02-09T09:48:08.236Z,76.80
2024-02-09T09:50:12.541Z,76.70
2024-02-09T09:52:31.900Z,77.30
2024-02-09T09:54:35.601Z,76.80
2024-02-09T09:56:40.776Z,76.10
2024-02-09T09:58:42.918Z,75.70
2024-02-09T10:00:46.568Z,75.60
2024-02-09T10:02:50.840Z,75.30
2024-02-09T10:04:53.517Z,75.10
2024-02-09T10:06:55.657Z,75.00
2024-02-09T10:08:59.417Z,75.00
2024-02-09T10:11:03.056Z,74.60
2024-02-09T10:13:12.782Z,74.40
2024-02-09T10:15:17.332Z,74.50
2024-02-09T10:17:19.108Z,74.50
2024-02-09T10:19:20.988Z,74.80
2024-02-09T10:21:22.824Z,74.20
2024-02-09T10:23:24.546Z,74.10
2024-02-09T10:25:26.452Z,74.20
2024-02-09T10:27:29.325Z,74.60
2024-02-09T10:29:31.492Z,73.70
2024-02-09T10:31:33.548Z,73.10
2024-02-09T10:33:37.434Z,72.50
2024-02-09T10:35:39.414Z,72.70
2024-02-09T10:37:42.331Z,73.20
2024-02-09T10:39:44.471Z,72.80
2024-02-09T10:41:50.896Z,72.20
2024-02-09T10:43:57.407Z,72.10
2024-02-09T10:45:59.954Z,72.10
2024-02-09T10:48:03.426Z,72.00
2024-02-09T10:50:11.489Z,71.50
2024-02-09T10:52:15.113Z,71.40
2024-02-09T10:54:23.849Z,71.50
2024-02-09T10:56:28.421Z,71.70
2024-02-09T10:58:36.368Z,70.90
2024-02-09T11:00:39.461Z,71.50
2024-02-09T11:02:44.729Z,71.80
2024-02-09T11:04:47.693Z,71.10
2024-02-09T11:06:50.775Z,71.30
2024-02-09T11:08:54.056Z,70.10
2024-02-09T11:11:03.206Z,69.70
2024-02-09T11:13:05.042Z,70.10
2024-02-09T11:15:16.866Z,70.40
2024-02-09T11:17:22.556Z,70.50
2024-02-09T11:19:24.632Z,70.40
2024-02-09T11:21:26.903Z,69.90
2024-02-09T11:23:31.031Z,69.40
2024-02-09T11:25:35.869Z,69.80
2024-02-09T11:27:38.298Z,69.20
2024-02-09T11:29:40.249Z,69.50
2024-02-09T11:31:42.662Z,70.00
2024-02-09T11:33:45.430Z,70.20
2024-02-09T11:35:50.527Z,70.30
2024-02-09T11:37:52.993Z,70.40
2024-02-09T11:39:55.157Z,70.50
2024-02-09T11:41:57.079Z,70.40
2024-02-09T11:43:59.422Z,70.70
2024-02-09T11:46:04.142Z,71.40
2024-02-09T11:48:08.191Z,71.20
2024-02-09T11:50:24.141Z,71.10
2024-02-09T11:52:25.952Z,70.90
2024-02-09T11:54:29.515Z,71.30
2024-02-09T11:56:32.955Z,71.50
2024-02-09T11:58:34.900Z,72.00
2024-02-09T12:00:37.805Z,71.70
2024-02-09T12:02:39.790Z,71.40
2024-02-09T12:04:41.730Z,71.20
2024-02-09T12:06:43.735Z,71.50
2024-02-09T12:08:46.622Z,71.80
2024-02-09T12:10:51.788Z,71.80
2024-02-09T12:12:54.005Z,72.00
2024-02-09T12:14:55.965Z,71.90
2024-02-09T12:16:58.425Z,71.10
2024-02-09T12:19:01.048Z,70.90
2024-02-09T12:21:04.100Z,70.50
2024-02-09T12:23:07.990Z,70.70
2024-02-09T12:25:12.730Z,70.90
2024-02-09T12:27:18.984Z,70.40
2024-02-09T12:29:20.736Z,70.30
2024-02-09T12:31:22.716Z,70.10
2024-02-09T12:33:26.978Z,69.50
2024-02-09T12:35:30.099Z,69.10
2024-02-09T12:37:32.455Z,69.40
2024-02-09T12:39:34.866Z,69.10
2024-02-09T12:41:42.128Z,68.50
2024-02-09T12:43:46.257Z,68.60
2024-02-09T12:45:48.255Z,68.50
2024-02-09T12:47:50.800Z,68.80
2024-02-09T12:49:54.225Z,68.90
2024-02-09T12:51:56.231Z,68.40
2024-02-09T12:53:58.470Z,68.80
2024-02-09T12:56:00.895Z,68.50
2024-02-09T12:58:03.150Z,68.90
2024-02-09T13:00:10.966Z,69.00
2024-02-09T13:02:12.926Z,69.20
2024-02-09T13:04:14.857Z,69.20
2024-02-09T13:06:18.146Z,69.10
2024-02-09T13:08:22.826Z,68.80
2024-02-09T13:10:24.889Z,68.00
2024-02-09T13:12:28.203Z,68.10
2024-02-09T13:14:31.225Z,68.40
2024-02-09T13:16:33.048Z,67.80
2024-02-09T13:18:34.890Z,67.80
2024-02-09T13:20:36.760Z,68.30
2024-02-09T13:22:38.736Z,67.90
2024-02-09T13:24:40.908Z,67.80
2024-02-09T13:26:42.930Z,67.50
2024-02-09T13:28:44.763Z,67.10
2024-02-09T13:30:47.433Z,66.00
2024-02-09T13:32:49.423Z,64.60
2024-02-09T13:34:51.505Z,64.40
2024-02-09T13:36:53.307Z,64.10
2024-02-09T13:38:56.835Z,63.80
2024-02-09T13:40:59.148Z,63.80
2024-02-09T13:43:01.689Z,63.30
2024-02-09T13:45:03.994Z,63.20
2024-02-09T13:47:06.127Z,63.30
2024-02-09T13:49:08.093Z,63.30
2024-02-09T13:51:10.438Z,63.10
2024-02-09T13:53:12.176Z,63.60
2024-02-09T13:55:14.686Z,63.70
2024-02-09T13:57:19.491Z,63.40
2024-02-09T13:59:22.037Z,63.30
2024-02-09T14:01:24.225Z,63.50
2024-02-09T14:03:27.419Z,63.20
2024-02-09T14:05:29.367Z,63.10
2024-02-09T14:07:31.505Z,63.20
2024-02-09T14:09:36.974Z,63.00
2024-02-09T14:11:42.781Z,63.10
2024-02-09T14:13:48.990Z,63.10
2024-02-09T14:15:51.841Z,63.20
2024-02-09T14:17:55.423Z,62.90
2024-02-09T14:19:57.226Z,63.00
2024-02-09T14:21:59.193Z,63.10
2024-02-09T14:24:01.624Z,63.30
2024-02-09T14:26:03.625Z,63.30
2024-02-09T14:28:09.342Z,63.20
2024-02-09T14:30:12.715Z,63.40
2024-02-09T14:32:14.858Z,63.60
2024-02-09T14:34:21.172Z,62.90
2024-02-09T14:36:23.799Z,63.10
2024-02-09T14:38:27.242Z,63.30
2024-02-09T14:40:31.885Z,63.60
2024-02-09T14:42:35.377Z,63.60
2024-02-09T14:44:37.131Z,63.70
2024-02-09T14:46:47.078Z,64.10
2024-02-09T14:48:51.151Z,64.40
2024-02-09T14:50:53.133Z,64.70
2024-02-09T14:52:55.041Z,65.00
2024-02-09T14:54:56.792Z,64.80
2024-02-09T14:57:00.065Z,65.40
2024-02-09T14:59:04.653Z,65.70
2024-02-09T15:01:07.213Z,65.90
2024-02-09T15:03:09.217Z,66.20
2024-02-09T15:05:16.595Z,66.60
2024-02-09T15:07:22.173Z,66.80
2024-02-09T15:09:25.535Z,66.60
2024-02-09T15:11:27.436Z,66.20
2024-02-09T15:13:29.198Z,66.10
2024-02-09T15:15:31.388Z,66.40
2024-02-09T15:17:33.390Z,66.70
2024-02-09T15:19:36.344Z,67.20
2024-02-09T15:21:39.394Z,66.90
2024-02-09T15:23:41.036Z,67.10
2024-02-09T15:25:43.414Z,67.30
2024-02-09T15:27:46.145Z,67.90
2024-02-09T15:29:47.802Z,67.90
2024-02-09T15:31:50.111Z,68.40
2024-02-09T15:33:52.588Z,68.90
2024-02-09T15:36:00.344Z,69.00
2024-02-09T15:38:02.158Z,69.00
2024-02-09T15:40:05.269Z,68.70
2024-02-09T15:42:07.854Z,69.00
2024-02-09T15:44:09.838Z,69.10
2024-02-09T15:46:20.256Z,69.40
2024-02-09T15:48:22.044Z,69.60
2024-02-09T15:50:23.833Z,70.10
2024-02-09T15:52:27.716Z,70.30
2024-02-09T15:54:32.068Z,70.50
2024-02-09T15:56:34.909Z,71.00
2024-02-09T15:58:36.799Z,70.90
2024-02-09T16:00:38.676Z,71.10
2024-02-09T16:02:40.476Z,71.20
2024-02-09T16:04:42.232Z,71.40
2024-02-09T16:06:44.073Z,71.50
2024-02-09T16:08:45.938Z,71.80
2024-02-09T16:10:47.856Z,71.90
2024-02-09T16:12:51.345Z,72.00
2024-02-09T16:14:53.113Z,71.80
2024-02-09T16:16:56.083Z,72.10
2024-02-09T16:18:58.822Z,72.30
2024-02-09T16:21:00.636Z,72.40
2024-02-09T16:23:02.378Z,72.80
2024-02-09T16:25:04.330Z,73.00
2024-02-09T16:27:07.926Z,73.10
2024-02-09T16:29:10.518Z,73.30
2024-02-09T16:31:16.572Z,73.70
2024-02-09T16:33:18.726Z,73.80
2024-02-09T16:35:20.580Z,74.00
2024-02-09T16:37:22.435Z,73.60
2024-02-09T16:39:24.960Z,73.70
2024-02-09T16:41:27.276Z,74.20
2024-02-09T16:43:30.339Z,74.30
2024-02-09T16:45:33.524Z,74.40
2024-02-09T16:47:35.387Z,74.40
2024-02-09T16:49:37.320Z,74.20
2024-02-09T16:51:39.165Z,74.50
2024-02-09T16:53:40.918Z,74.70
2024-02-09T16:55:42.780Z,75.00
2024-02-09T16:57:44.592Z,75.40
2024-02-09T16:59:46.335Z,75.50
2024-02-09T17:01:48.179Z,75.50
2024-02-09T17:03:50.067Z,75.80
2024-02-09T17:05:52.040Z,75.90
2024-02-09T17:07:54.325Z,76.10
2024-02-09T17:09:56.049Z,76.20
2024-02-09T17:11:57.922Z,76.00
2024-02-09T17:13:59.726Z,75.90
2024-02-09T17:16:01.690Z,76.40
2024-02-09T17:18:04.825Z,76.70
2024-02-09T17:20:08.829Z,76.90
2024-02-09T17:22:11.647Z,77.10
2024-02-09T17:24:13.663Z,77.20
2024-02-09T17:26:20.046Z,77.20
2024-02-09T17:28:21.968Z,77.50
2024-02-09T17:30:23.731Z,77.70
2024-02-09T17:32:27.522Z,77.60
2024-02-09T17:34:29.532Z,77.50
2024-02-09T17:36:31.582Z,77.60
2024-02-09T17:38:34.901Z,77.70
2024-02-09T17:40:39.667Z,77.70
2024-02-09T17:42:42.039Z,77.90
2024-02-09T21:31:22.950Z,87.50
2024-02-09T21:33:25.400Z,87.20
2024-02-09T21:35:27.442Z,87.00
2024-02-09T21:37:29.507Z,87.10
2024-02-09T21:39:31.261Z,87.10
2024-02-09T21:41:33.121Z,87.10
2024-02-09T21:43:36.309Z,87.00
2024-02-09T21:45:45.531Z,86.90
2024-02-09T21:47:48.741Z,87.00
2024-02-09T21:49:51.022Z,87.10
2024-02-09T21:51:52.986Z,86.90
2024-02-09T21:53:54.708Z,87.10
2024-02-09T21:55:58.252Z,87.20
2024-02-09T21:58:02.432Z,87.20
2024-02-09T22:00:05.735Z,86.90
2024-02-09T22:02:08.353Z,86.80
2024-02-09T22:04:10.182Z,86.70
2024-02-09T22:06:12.147Z,86.90
2024-02-09T22:08:13.975Z,87.00
2024-02-09T22:10:15.961Z,87.00
2024-02-09T22:12:28.123Z,86.90
2024-02-09T22:14:29.880Z,86.80
2024-02-09T22:16:31.671Z,87.10
2024-02-09T22:18:33.471Z,87.10
2024-02-09T22:20:35.849Z,86.90
2024-02-09T22:22:45.167Z,86.90
2024-02-09T22:24:47.012Z,86.80
2024-02-09T22:26:48.821Z,86.70
2024-02-09T22:28:50.797Z,86.80
2024-02-09T22:30:52.585Z,86.80
2024-02-09T22:32:54.488Z,86.60
2024-02-09T22:34:56.435Z,86.50
2024-02-09T22:36:58.461Z,86.50
2024-02-09T22:39:03.795Z,86.60
2024-02-09T22:41:05.630Z,86.60
2024-02-09T22:43:09.772Z,86.80
2024-02-09T22:45:13.075Z,87.10
2024-02-09T22:47:19.595Z,87.00
2024-02-09T22:49:22.866Z,86.90
2024-02-09T22:51:24.605Z,87.00
2024-02-09T22:53:26.361Z,87.10
2024-02-09T22:55:28.193Z,87.20
2024-02-09T22:57:30.078Z,87.20
2024-02-09T22:59:31.902Z,87.20
2024-02-09T23:01:33.843Z,86.90
2024-02-09T23:03:37.907Z,86.80
2024-02-09T23:05:40.091Z,87.00
2024-02-09T23:07:43.110Z,87.10
2024-02-09T23:09:45.830Z,87.00
2024-02-09T23:11:47.609Z,86.70
2024-02-09T23:13:49.511Z,87.00
2024-02-09T23:15:52.817Z,87.40
2024-02-09T23:17:55.800Z,87.30
2024-02-09T23:19:58.076Z,87.00
2024-02-09T23:22:01.992Z,87.20
2024-02-09T23:24:03.899Z,87.30
2024-02-09T23:26:06.438Z,87.40
2024-02-09T23:28:09.133Z,87.50
2024-02-09T23:30:11.925Z,87.60
2024-02-09T23:32:13.590Z,87.70
2024-02-09T23:34:17.802Z,87.80
2024-02-09T23:36:21.048Z,87.60
2024-02-09T23:38:23.235Z,87.80
2024-02-09T23:40:25.046Z,88.00
2024-02-09T23:42:27.864Z,87.70
2024-02-09T23:44:29.672Z,87.80
2024-02-09T23:46:31.696Z,87.80
2024-02-09T23:48:34.091Z,87.90
2024-02-09T23:50:35.924Z,87.90
2024-02-09T23:52:39.034Z,87.70
2024-02-09T23:54:40.980Z,87.90
2024-02-09T23:56:45.580Z,88.30
2024-02-09T23:58:48.038Z,88.60
